Andrews, Indiana
Current Conditions -  °F | °C
As of 7:35 AM on Wednesday 26 Nov 2014 (Local Time) from KHHG Reporting Station
Overcast Overcast  
Wind Chill: 19°   Ceiling: 1200
Heat Index: 24°   Visibility: 10mi
Dew Point: 20°   Wind: 5mph
Humidity: 84%   Direction: 30°NNE
Pressure: 30.15"   Gusts: NA
Location:  40.86°N, 85.6°W
Report Text: KHHG 261235Z AUTO 03004KT 10SM OVC012 M04/M06 A3015 RMK AO2 T10421065
Loading
Personal Weather Stations






























Interactive Weather Map New forecast layout! Learn more

10-Day Weather Forecast

Advertisements
Track Severe Weather on mobile